Time;durP1;ratioP1;P1;durP2;ratioP2;P2;SDS_P1;SDS_P2;PMS_P1;PMS_P2;Temp;Humidity;BMP_temperature;BMP_pressure;BME280_temperature;BME280_humidity;BME280_pressure;Samples;Min_cycle;Max_cycle;Signal;HPM_P1;HPM_P2
2023/03/21 00:01:06;;;;;;;51.10;42.80;;;14.70;1.00;;;;;;5113850;28;20019;-53
2023/03/21 00:03:33;;;;;;;53.00;41.58;;;14.60;1.00;;;;;;5108189;28;20027;-54
2023/03/21 00:06:04;;;;;;;52.53;41.97;;;14.70;1.00;;;;;;5096270;28;20024;-49
2023/03/21 00:08:30;;;;;;;52.97;42.45;;;14.60;1.00;;;;;;5094705;27;20066;-55
2023/03/21 00:11:00;;;;;;;52.30;44.47;;;14.60;1.00;;;;;;5112734;27;20028;-55
2023/03/21 00:13:31;;;;;;;57.15;43.85;;;14.60;1.00;;;;;;5102255;27;20085;-55
2023/03/21 00:16:07;;;;;;;53.75;41.80;;;14.50;1.00;;;;;;5115202;27;20023;-50
2023/03/21 00:18:35;;;;;;;54.03;43.17;;;14.50;1.00;;;;;;5111442;28;20027;-52
2023/03/21 00:21:05;;;;;;;51.53;42.17;;;14.50;1.00;;;;;;5123174;27;20032;-55
2023/03/21 00:23:32;;;;;;;54.88;43.30;;;14.50;1.00;;;;;;5115537;27;20019;-54
2023/03/21 00:25:58;;;;;;;58.15;46.38;;;14.50;1.00;;;;;;5102084;27;20397;-53
2023/03/21 00:28:24;;;;;;;56.58;43.60;;;14.50;1.00;;;;;;5107660;27;20019;-54
2023/03/21 00:30:55;;;;;;;55.03;44.92;;;14.40;1.00;;;;;;5095150;28;20540;-55
2023/03/21 00:33:21;;;;;;;56.55;44.33;;;14.40;1.00;;;;;;5111319;28;20051;-51
2023/03/21 00:35:50;;;;;;;57.45;45.63;;;14.30;1.00;;;;;;5105618;27;20481;-53
2023/03/21 00:38:17;;;;;;;55.50;44.38;;;14.30;1.00;;;;;;5099118;28;20051;-51
2023/03/21 00:40:43;;;;;;;59.08;44.28;;;14.30;1.00;;;;;;5118986;28;20027;-50
2023/03/21 00:43:10;;;;;;;57.47;46.92;;;14.30;1.00;;;;;;5113164;28;20019;-54
2023/03/21 00:45:37;;;;;;;58.47;45.00;;;14.30;1.00;;;;;;5118104;28;20449;-51
2023/03/21 00:48:04;;;;;;;58.65;45.00;;;14.30;1.00;;;;;;5101276;28;20496;-48
2023/03/21 00:50:31;;;;;;;57.33;46.47;;;14.30;1.00;;;;;;5125732;28;20079;-49
2023/03/21 00:52:57;;;;;;;59.08;45.42;;;14.30;1.00;;;;;;5114428;28;20027;-49
2023/03/21 00:55:22;;;;;;;60.22;47.90;;;14.30;1.00;;;;;;5101740;28;20415;-52
2023/03/21 00:57:48;;;;;;;61.83;46.78;;;14.30;1.00;;;;;;5112731;28;20491;-50
2023/03/21 01:00:14;;;;;;;57.97;46.88;;;14.20;1.00;;;;;;5118037;28;20388;-49
2023/03/21 01:02:54;;;;;;;53.67;45.30;;;14.20;1.00;;;;;;5112809;28;20030;-51
2023/03/21 01:08:11;;;;;;;64.47;49.10;;;14.10;1.00;;;;;;5108821;28;20035;-52
2023/03/21 01:10:41;;;;;;;59.65;48.50;;;14.10;1.00;;;;;;5114982;28;20053;-52
2023/03/21 01:13:08;;;;;;;62.13;49.10;;;14.10;1.00;;;;;;5115408;28;20038;-49
2023/03/21 01:15:34;;;;;;;63.00;48.38;;;14.10;1.00;;;;;;5121442;28;20102;-53
2023/03/21 01:18:01;;;;;;;58.75;48.45;;;14.10;1.00;;;;;;5112904;28;20035;-49
2023/03/21 01:20:27;;;;;;;62.63;48.80;;;14.10;1.00;;;;;;5111342;28;20042;-52
2023/03/21 01:22:52;;;;;;;62.05;48.13;;;14.10;1.00;;;;;;5112885;28;20034;-53
2023/03/21 01:25:18;;;;;;;60.13;46.15;;;14.00;1.00;;;;;;5111085;28;20477;-48
2023/03/21 01:27:44;;;;;;;58.70;48.38;;;14.10;1.00;;;;;;5105070;28;20024;-49
2023/03/21 01:30:11;;;;;;;55.25;46.88;;;14.00;1.00;;;;;;5111730;28;20035;-49
2023/03/21 01:32:36;;;;;;;61.30;47.58;;;14.00;1.00;;;;;;5110978;28;20016;-54
2023/03/21 01:35:03;;;;;;;59.47;47.47;;;14.00;1.00;;;;;;5120350;28;20089;-49
2023/03/21 01:37:29;;;;;;;61.00;46.97;;;14.00;1.00;;;;;;5093219;28;20085;-52
2023/03/21 01:39:55;;;;;;;61.80;46.83;;;14.00;1.00;;;;;;5115257;28;20062;-51
2023/03/21 01:42:21;;;;;;;64.90;49.22;;;13.90;1.00;;;;;;5125517;27;20054;-51
2023/03/21 01:44:54;;;;;;;57.97;47.83;;;13.90;1.00;;;;;;5104509;27;20039;-48
2023/03/21 01:47:20;;;;;;;60.90;47.72;;;13.90;1.00;;;;;;5115579;28;20435;-54
2023/03/21 01:49:49;;;;;;;56.55;47.35;;;13.90;1.00;;;;;;5119607;27;20062;-55
2023/03/21 01:52:37;;;;;;;60.03;48.80;;;13.90;1.00;;;;;;5115400;28;20070;-49
2023/03/21 01:55:05;;;;;;;59.55;49.42;;;13.90;1.00;;;;;;5122743;27;20109;-51
2023/03/21 01:57:40;;;;;;;58.35;47.85;;;13.80;1.00;;;;;;5101494;28;20024;-49
2023/03/21 02:00:11;;;;;;;64.63;48.63;;;13.80;1.00;;;;;;5123586;27;20038;-50
2023/03/21 02:03:00;;;;;;;63.42;47.92;;;13.90;1.00;;;;;;5101552;27;20035;-51
2023/03/21 02:05:32;;;;;;;58.88;46.75;;;13.90;1.00;;;;;;5111794;27;20035;-51
2023/03/21 02:07:59;;;;;;;61.08;49.55;;;13.80;1.00;;;;;;5093412;28;20024;-50
2023/03/21 02:10:27;;;;;;;62.15;47.85;;;13.80;1.00;;;;;;5115799;28;20464;-48
2023/03/21 02:12:54;;;;;;;66.05;49.25;;;13.80;1.00;;;;;;5115405;27;20385;-49
2023/03/21 02:15:22;;;;;;;67.47;51.75;;;13.80;1.00;;;;;;5115796;28;20067;-49
2023/03/21 02:17:58;;;;;;;63.42;50.53;;;13.80;1.00;;;;;;5123796;27;20019;-50
2023/03/21 02:20:49;;;;;;;66.38;52.88;;;13.80;1.00;;;;;;5118321;27;20093;-48
2023/03/21 02:23:52;;;;;;;62.45;52.13;;;13.80;1.00;;;;;;5114946;28;20024;-48
2023/03/21 02:26:53;;;;;;;61.50;50.78;;;13.80;1.00;;;;;;5110922;28;20027;-51
2023/03/21 02:29:38;;;;;;;64.43;50.88;;;13.70;1.00;;;;;;5112746;28;20030;-51
2023/03/21 02:32:06;;;;;;;60.50;51.67;;;13.70;1.00;;;;;;5101654;28;20027;-51
2023/03/21 02:34:58;;;;;;;69.07;53.50;;;13.60;1.00;;;;;;5125135;27;20074;-51
2023/03/21 02:37:26;;;;;;;68.40;53.00;;;13.60;1.00;;;;;;5111417;27;20024;-52
2023/03/21 02:39:55;;;;;;;68.90;53.33;;;13.60;1.00;;;;;;5118762;27;20501;-50
2023/03/21 02:42:53;;;;;;;73.43;55.30;;;13.60;1.00;;;;;;5114396;28;20069;-48
2023/03/21 02:45:24;;;;;;;67.15;53.75;;;13.60;1.00;;;;;;5112659;28;20037;-51
2023/03/21 02:47:56;;;;;;;65.65;52.42;;;13.60;1.00;;;;;;5114915;27;20024;-51
2023/03/21 02:50:41;;;;;;;66.80;51.25;;;13.60;1.00;;;;;;5117019;27;20027;-53
2023/03/21 02:53:10;;;;;;;65.03;52.05;;;13.60;1.00;;;;;;5117942;27;20092;-55
2023/03/21 02:55:37;;;;;;;63.78;51.75;;;13.50;1.00;;;;;;5125503;27;20026;-55
2023/03/21 02:58:05;;;;;;;66.05;51.67;;;13.50;1.00;;;;;;5123807;27;20059;-54
2023/03/21 03:00:32;;;;;;;65.15;52.67;;;13.50;1.00;;;;;;5098960;27;20453;-52
2023/03/21 03:02:58;;;;;;;63.38;52.30;;;13.50;1.00;;;;;;5114520;28;20032;-53
2023/03/21 03:05:30;;;;;;;65.80;52.55;;;13.50;1.00;;;;;;5116077;27;20016;-51
2023/03/21 03:08:18;;;;;;;68.55;53.70;;;13.50;1.00;;;;;;5117351;27;20061;-53
2023/03/21 03:10:50;;;;;;;67.38;52.10;;;13.40;1.00;;;;;;5124383;27;20492;-52
2023/03/21 03:13:53;;;;;;;64.82;53.28;;;13.40;1.00;;;;;;5114010;28;20039;-48
2023/03/21 03:16:21;;;;;;;64.25;51.50;;;13.40;1.00;;;;;;5112646;27;20028;-53
2023/03/21 03:18:55;;;;;;;71.53;54.35;;;13.40;1.00;;;;;;5114349;27;20032;-48
2023/03/21 03:21:27;;;;;;;69.18;55.28;;;13.40;1.00;;;;;;5112047;28;20028;-48
2023/03/21 03:24:00;;;;;;;68.22;53.20;;;13.40;1.00;;;;;;5105247;27;20085;-47
2023/03/21 03:26:38;;;;;;;70.20;53.53;;;13.40;1.00;;;;;;5097147;28;20373;-50
2023/03/21 03:29:12;;;;;;;66.43;52.00;;;13.40;1.00;;;;;;5125064;27;20020;-50
2023/03/21 03:31:46;;;;;;;68.35;54.03;;;13.40;1.00;;;;;;5113409;28;20027;-54
2023/03/21 03:34:16;;;;;;;68.40;54.63;;;13.40;1.00;;;;;;5118966;27;20074;-50
2023/03/21 03:36:46;;;;;;;69.28;54.47;;;13.30;1.00;;;;;;5096050;27;20030;-48
2023/03/21 03:39:13;;;;;;;68.90;55.60;;;13.30;1.00;;;;;;5112809;27;20058;-48
2023/03/21 03:42:02;;;;;;;70.57;55.42;;;13.30;1.00;;;;;;5113557;28;20067;-48
2023/03/21 03:44:28;;;;;;;70.07;55.40;;;13.30;1.00;;;;;;5124695;27;20044;-50
2023/03/21 03:47:40;;;;;;;67.03;53.58;;;13.20;1.00;;;;;;5114202;28;20069;-48
2023/03/21 03:50:19;;;;;;;68.20;55.30;;;13.20;1.00;;;;;;5071682;28;20411;-53
2023/03/21 03:53:03;;;;;;;71.28;54.92;;;13.20;1.00;;;;;;5114796;27;20024;-48
2023/03/21 03:55:33;;;;;;;74.40;57.72;;;13.20;1.00;;;;;;5118085;27;20081;-50
2023/03/21 03:58:00;;;;;;;70.93;53.70;;;13.10;1.00;;;;;;5119770;27;20014;-51
2023/03/21 04:00:26;;;;;;;73.13;55.15;;;13.20;1.00;;;;;;5113628;28;20036;-51
2023/03/21 04:02:53;;;;;;;74.28;57.90;;;13.20;1.00;;;;;;5121082;27;20023;-49
2023/03/21 04:05:20;;;;;;;74.35;57.10;;;13.10;1.00;;;;;;5114090;28;20431;-51
2023/03/21 04:07:49;;;;;;;70.10;53.67;;;13.10;1.00;;;;;;5119139;27;20019;-53
2023/03/21 04:10:15;;;;;;;75.00;56.78;;;13.10;1.00;;;;;;5119894;27;20088;-48
2023/03/21 04:12:42;;;;;;;73.22;56.92;;;13.10;1.00;;;;;;5095619;28;20415;-50
2023/03/21 04:15:08;;;;;;;70.70;56.55;;;13.10;1.00;;;;;;5112119;27;20044;-52
2023/03/21 04:17:34;;;;;;;74.72;57.15;;;13.00;1.00;;;;;;5113588;28;20073;-53
2023/03/21 04:19:59;;;;;;;72.20;55.03;;;13.00;1.00;;;;;;5126995;27;20070;-54
2023/03/21 04:22:25;;;;;;;73.18;56.60;;;13.10;1.00;;;;;;5113616;28;20066;-49
2023/03/21 04:24:52;;;;;;;74.18;57.30;;;13.10;1.00;;;;;;5098743;27;20040;-53
2023/03/21 04:27:18;;;;;;;70.43;56.35;;;13.10;1.00;;;;;;5095236;28;20023;-55
2023/03/21 04:29:43;;;;;;;72.97;58.53;;;13.10;1.00;;;;;;5114022;28;20165;-53
2023/03/21 04:32:15;;;;;;;74.53;57.75;;;13.10;1.00;;;;;;5113543;28;20024;-48
2023/03/21 04:34:42;;;;;;;74.53;56.40;;;13.10;1.00;;;;;;5115852;28;20051;-51
2023/03/21 04:37:12;;;;;;;75.50;56.70;;;13.10;1.00;;;;;;5113359;28;20020;-53
2023/03/21 04:39:38;;;;;;;80.10;59.00;;;13.00;1.00;;;;;;5117000;28;20049;-48
2023/03/21 04:42:04;;;;;;;75.25;55.90;;;13.00;1.00;;;;;;5094982;28;20386;-48
2023/03/21 04:44:29;;;;;;;72.57;57.33;;;13.00;1.00;;;;;;5114758;28;20063;-49
2023/03/21 04:46:55;;;;;;;75.07;57.75;;;13.00;1.00;;;;;;5110219;28;20024;-53
2023/03/21 04:49:21;;;;;;;75.80;58.30;;;13.00;1.00;;;;;;5111162;28;20032;-48
2023/03/21 04:51:46;;;;;;;72.45;54.65;;;13.00;1.00;;;;;;5121941;28;20384;-48
2023/03/21 04:54:12;;;;;;;72.03;56.65;;;13.00;1.00;;;;;;5114600;28;20066;-48
2023/03/21 04:56:38;;;;;;;71.22;53.90;;;13.00;1.00;;;;;;5102485;28;20024;-51
2023/03/21 04:59:10;;;;;;;72.38;56.22;;;13.00;1.00;;;;;;5118583;28;20023;-47
2023/03/21 05:01:36;;;;;;;73.65;54.97;;;13.00;1.00;;;;;;5113618;28;20102;-49
2023/03/21 05:04:03;;;;;;;78.60;56.60;;;12.90;1.00;;;;;;5093350;28;20079;-48
2023/03/21 05:06:29;;;;;;;71.43;55.97;;;12.90;1.00;;;;;;5107577;28;20028;-47
2023/03/21 05:08:58;;;;;;;69.70;54.08;;;12.90;1.00;;;;;;5105460;28;20032;-51
2023/03/21 05:11:26;;;;;;;68.57;52.55;;;12.90;1.00;;;;;;5099193;28;20028;-48
2023/03/21 05:13:51;;;;;;;68.50;52.55;;;12.90;1.00;;;;;;5117011;28;20043;-49
2023/03/21 05:16:17;;;;;;;73.20;55.00;;;12.90;1.00;;;;;;5112814;27;20362;-51
2023/03/21 05:18:43;;;;;;;75.22;57.50;;;12.90;1.00;;;;;;5096497;28;20153;-48
2023/03/21 05:21:09;;;;;;;71.35;55.58;;;13.00;1.00;;;;;;5121163;27;20024;-49
2023/03/21 05:23:38;;;;;;;75.03;53.75;;;13.00;1.00;;;;;;5119866;27;20022;-52
2023/03/21 05:26:06;;;;;;;71.30;55.40;;;13.00;1.00;;;;;;5101238;28;20430;-51
2023/03/21 05:28:35;;;;;;;69.85;52.88;;;13.00;1.00;;;;;;5104458;27;20490;-48
2023/03/21 05:31:00;;;;;;;70.05;54.53;;;13.00;1.00;;;;;;5099147;28;20024;-47
2023/03/21 05:33:26;;;;;;;75.32;54.58;;;12.90;1.00;;;;;;5118369;27;20489;-48
2023/03/21 05:35:52;;;;;;;76.40;57.03;;;12.90;1.00;;;;;;5117023;28;20523;-56
2023/03/21 05:38:17;;;;;;;75.43;57.33;;;12.90;1.00;;;;;;5122753;27;20043;-56
2023/03/21 05:40:47;;;;;;;75.82;58.47;;;12.90;1.00;;;;;;5122501;27;20457;-55
2023/03/21 05:43:13;;;;;;;69.47;53.17;;;12.90;1.00;;;;;;5116013;28;20024;-53
2023/03/21 05:45:38;;;;;;;71.45;53.33;;;12.90;1.00;;;;;;5113418;27;20036;-55
2023/03/21 05:48:04;;;;;;;72.05;52.35;;;13.00;1.00;;;;;;5104161;27;20114;-55
2023/03/21 05:50:30;;;;;;;64.88;51.33;;;13.00;1.00;;;;;;5111638;27;20028;-55
2023/03/21 05:52:55;;;;;;;66.60;51.33;;;13.00;1.00;;;;;;5109514;28;20066;-53
2023/03/21 05:55:21;;;;;;;69.22;51.92;;;12.90;1.00;;;;;;5124481;27;20107;-55
2023/03/21 05:57:47;;;;;;;62.63;47.88;;;12.90;1.00;;;;;;5116270;28;20019;-52
2023/03/21 06:00:14;;;;;;;64.15;49.40;;;12.90;1.00;;;;;;5123799;27;20491;-55
2023/03/21 06:02:39;;;;;;;62.47;47.67;;;12.70;1.00;;;;;;5116239;28;20468;-51
2023/03/21 06:05:05;;;;;;;63.65;50.55;;;12.80;1.00;;;;;;5125258;27;20025;-54
2023/03/21 06:07:32;;;;;;;64.63;51.22;;;12.80;1.00;;;;;;5116477;28;20035;-54
2023/03/21 06:09:57;;;;;;;65.20;50.13;;;12.80;1.00;;;;;;5127451;27;20415;-53
2023/03/21 06:12:23;;;;;;;65.65;52.95;;;12.80;1.00;;;;;;5117095;27;20031;-51
2023/03/21 06:14:49;;;;;;;69.45;52.63;;;12.80;1.00;;;;;;5111059;28;20032;-53
2023/03/21 06:17:14;;;;;;;67.32;55.15;;;12.80;1.00;;;;;;5095637;28;20500;-49
2023/03/21 06:19:40;;;;;;;65.65;50.67;;;12.70;1.00;;;;;;5115911;28;20366;-50
2023/03/21 06:22:06;;;;;;;69.50;53.58;;;12.80;1.00;;;;;;5117885;27;20102;-48
2023/03/21 06:24:32;;;;;;;72.57;55.25;;;12.80;1.00;;;;;;5114399;27;20056;-48
2023/03/21 06:26:57;;;;;;;72.53;54.33;;;12.80;1.00;;;;;;5097450;28;20042;-49
2023/03/21 06:29:23;;;;;;;74.03;54.67;;;12.80;1.00;;;;;;5121276;27;20069;-52
2023/03/21 06:31:49;;;;;;;74.82;56.83;;;12.70;1.00;;;;;;5120392;27;20028;-49
2023/03/21 06:34:14;;;;;;;75.43;58.28;;;12.70;1.00;;;;;;5121473;27;20054;-53
2023/03/21 06:36:40;;;;;;;79.88;57.25;;;12.80;1.00;;;;;;5097593;28;20046;-50
2023/03/21 06:39:07;;;;;;;73.18;55.50;;;12.70;1.00;;;;;;5104128;28;20054;-50
2023/03/21 06:41:32;;;;;;;77.25;58.53;;;12.70;1.00;;;;;;5115317;28;20031;-49
2023/03/21 06:43:58;;;;;;;75.35;57.72;;;12.80;1.00;;;;;;5121623;27;20024;-52
2023/03/21 06:46:24;;;;;;;72.32;56.78;;;12.80;1.00;;;;;;5115571;28;20028;-52
2023/03/21 06:48:50;;;;;;;76.63;57.65;;;12.80;1.00;;;;;;5123385;27;20117;-51
2023/03/21 06:51:15;;;;;;;78.97;58.10;;;12.90;1.00;;;;;;5115501;28;20106;-49
2023/03/21 06:53:42;;;;;;;75.70;56.67;;;12.80;1.00;;;;;;5118310;27;20477;-50
2023/03/21 06:56:10;;;;;;;78.85;58.58;;;12.80;1.00;;;;;;5115802;27;20019;-53
2023/03/21 06:58:35;;;;;;;79.55;59.40;;;12.80;1.00;;;;;;5114196;28;20126;-49
2023/03/21 07:01:03;;;;;;;81.47;60.20;;;12.80;1.00;;;;;;5119246;27;20516;-51
2023/03/21 07:03:30;;;;;;;76.72;58.40;;;12.80;1.00;;;;;;5118153;27;20023;-53
2023/03/21 07:05:56;;;;;;;73.57;59.70;;;12.90;1.00;;;;;;5112166;27;20192;-53
2023/03/21 07:08:22;;;;;;;79.35;60.67;;;12.90;1.00;;;;;;5116788;27;20460;-50
2023/03/21 07:10:49;;;;;;;79.63;59.80;;;12.90;1.00;;;;;;5120680;27;20063;-53
2023/03/21 07:13:15;;;;;;;78.72;60.97;;;12.80;1.00;;;;;;5112445;28;20035;-51
2023/03/21 07:15:41;;;;;;;83.45;60.90;;;12.90;1.00;;;;;;5107107;27;20110;-53
2023/03/21 07:18:08;;;;;;;81.90;61.97;;;12.90;1.00;;;;;;5116333;27;20030;-48
2023/03/21 07:20:36;;;;;;;82.78;60.10;;;13.00;1.00;;;;;;5116430;27;20095;-51
2023/03/21 07:23:02;;;;;;;85.05;61.55;;;13.00;1.00;;;;;;5117558;27;20549;-53
2023/03/21 07:25:28;;;;;;;83.15;63.63;;;13.00;1.00;;;;;;5120463;27;20034;-52
2023/03/21 07:27:54;;;;;;;84.85;64.30;;;13.00;1.00;;;;;;5114500;28;20098;-52
2023/03/21 07:30:20;;;;;;;84.93;62.50;;;13.10;1.00;;;;;;5124396;27;20072;-52
2023/03/21 07:32:46;;;;;;;84.13;62.30;;;13.10;1.00;;;;;;5114596;27;20032;-52
2023/03/21 07:35:14;;;;;;;76.50;59.67;;;13.20;1.00;;;;;;5118625;28;20036;-51
2023/03/21 07:37:40;;;;;;;79.25;61.63;;;13.10;1.00;;;;;;5113781;27;20019;-49
2023/03/21 07:40:11;;;;;;;79.80;59.92;;;13.20;1.00;;;;;;5120558;27;20046;-52
2023/03/21 07:42:39;;;;;;;83.15;65.25;;;13.20;1.00;;;;;;5099333;27;20073;-49
2023/03/21 07:45:06;;;;;;;81.63;64.35;;;13.20;1.00;;;;;;5116759;27;20042;-54
2023/03/21 07:47:33;;;;;;;84.50;66.53;;;13.20;1.00;;;;;;5112332;27;20536;-50
2023/03/21 07:49:58;;;;;;;82.80;63.33;;;13.20;1.00;;;;;;5102105;28;20385;-51
2023/03/21 07:52:24;;;;;;;90.80;66.20;;;13.30;1.00;;;;;;5114370;27;20035;-50
2023/03/21 07:54:50;;;;;;;86.30;64.75;;;13.40;1.00;;;;;;5112677;27;20036;-48
2023/03/21 07:57:16;;;;;;;89.40;64.57;;;13.40;1.00;;;;;;5113224;28;20030;-55
2023/03/21 07:59:42;;;;;;;88.65;67.32;;;13.40;1.00;;;;;;5100418;27;20484;-48
2023/03/21 08:02:17;;;;;;;84.65;65.18;;;13.40;1.00;;;;;;5100603;28;20073;-48
2023/03/21 08:04:43;;;;;;;83.07;63.97;;;13.40;1.00;;;;;;5111697;27;20028;-48
2023/03/21 08:07:09;;;;;;;90.10;67.00;;;13.40;1.00;;;;;;5113880;28;20030;-49
2023/03/21 08:09:36;;;;;;;89.35;64.75;;;13.50;1.00;;;;;;5121849;27;20033;-58
2023/03/21 08:12:02;;;;;;;89.00;69.85;;;13.50;1.00;;;;;;5117740;27;20020;-60
2023/03/21 08:14:28;;;;;;;88.13;68.05;;;13.60;1.00;;;;;;5119911;27;20046;-59
2023/03/21 08:16:53;;;;;;;88.55;69.82;;;13.60;1.00;;;;;;5110187;27;20019;-59
2023/03/21 08:19:20;;;;;;;88.05;69.60;;;13.70;1.00;;;;;;5103845;27;20086;-60
2023/03/21 08:21:48;;;;;;;90.53;67.47;;;13.70;1.00;;;;;;5103811;27;20019;-60
2023/03/21 08:24:14;;;;;;;90.60;68.72;;;13.80;1.00;;;;;;5103190;28;20031;-59
2023/03/21 08:26:40;;;;;;;88.85;69.80;;;13.80;1.00;;;;;;5109288;28;20031;-59
2023/03/21 08:29:06;;;;;;;84.93;69.18;;;13.90;1.00;;;;;;5093936;28;20118;-59
2023/03/21 08:31:32;;;;;;;84.05;68.57;;;13.90;1.00;;;;;;5112191;28;20111;-59
2023/03/21 08:33:57;;;;;;;89.72;68.38;;;13.90;1.00;;;;;;5102420;28;20051;-59
2023/03/21 08:36:23;;;;;;;89.60;68.85;;;14.00;1.00;;;;;;5110119;28;20057;-59
2023/03/21 08:38:53;;;;;;;90.00;69.40;;;14.00;1.00;;;;;;5104143;28;20408;-59
2023/03/21 08:41:20;;;;;;;94.13;68.95;;;14.00;1.00;;;;;;5112482;28;20028;-59
2023/03/21 08:43:47;;;;;;;88.13;68.43;;;14.00;1.00;;;;;;5108570;28;20047;-59
2023/03/21 08:46:13;;;;;;;85.05;66.30;;;14.10;1.00;;;;;;5112011;28;20499;-59
2023/03/21 08:48:38;;;;;;;85.85;68.53;;;14.10;1.00;;;;;;5112270;28;20019;-59
2023/03/21 08:51:05;;;;;;;85.72;67.57;;;14.20;1.00;;;;;;5106274;28;20540;-59
2023/03/21 08:53:31;;;;;;;84.43;67.43;;;14.20;1.00;;;;;;5112218;28;20039;-59
2023/03/21 08:55:57;;;;;;;90.63;68.70;;;14.30;1.00;;;;;;5110333;28;20056;-59
2023/03/21 08:58:23;;;;;;;87.07;66.65;;;14.30;1.00;;;;;;5113281;28;20055;-59
2023/03/21 09:00:48;;;;;;;87.07;66.82;;;14.40;1.00;;;;;;5115681;28;20504;-59
2023/03/21 09:03:14;;;;;;;87.88;68.78;;;14.40;1.00;;;;;;5100716;28;20037;-59
2023/03/21 09:05:40;;;;;;;85.55;70.47;;;14.40;1.00;;;;;;5085516;28;20024;-59
2023/03/21 09:08:06;;;;;;;86.10;66.20;;;14.50;1.00;;;;;;5107375;28;20024;-59
2023/03/21 09:10:31;;;;;;;86.60;68.80;;;14.50;1.00;;;;;;5104758;28;20052;-59
2023/03/21 09:12:57;;;;;;;82.18;66.03;;;14.60;1.00;;;;;;5102104;28;20035;-59
2023/03/21 09:15:27;;;;;;;81.38;63.63;;;14.60;1.00;;;;;;5096426;28;20024;-60
2023/03/21 09:17:55;;;;;;;83.57;65.30;;;14.70;1.00;;;;;;5112229;28;20512;-59
2023/03/21 09:20:29;;;;;;;81.20;65.28;;;14.70;1.00;;;;;;5107837;28;20042;-59
2023/03/21 09:22:56;;;;;;;78.90;62.85;;;14.70;1.00;;;;;;5113584;28;20020;-59
2023/03/21 09:25:23;;;;;;;83.65;66.55;;;14.80;1.00;;;;;;5112924;28;20058;-59
2023/03/21 09:27:50;;;;;;;82.78;66.05;;;14.80;1.00;;;;;;5118381;28;20107;-59
2023/03/21 09:30:19;;;;;;;85.47;65.90;;;14.90;1.00;;;;;;5110572;28;20106;-59
2023/03/21 09:32:47;;;;;;;87.72;67.43;;;15.00;1.00;;;;;;5101395;28;20392;-59
2023/03/21 09:35:15;;;;;;;80.75;64.90;;;15.00;1.00;;;;;;5123300;28;20130;-59
2023/03/21 09:37:41;;;;;;;80.93;62.88;;;15.10;1.00;;;;;;5113127;28;20451;-59
2023/03/21 09:40:45;;;;;;;76.95;62.70;;;15.10;1.00;;;;;;5098035;28;20470;-59
2023/03/21 09:43:14;;;;;;;84.03;64.07;;;15.20;1.00;;;;;;5099643;28;20044;-59
2023/03/21 09:45:56;;;;;;;79.10;64.25;;;15.20;1.00;;;;;;5108335;28;20028;-59
2023/03/21 09:48:46;;;;;;;75.47;60.78;;;15.30;1.00;;;;;;5121755;28;20033;-59
2023/03/21 09:51:16;;;;;;;81.13;63.75;;;15.40;1.00;;;;;;5105291;28;20039;-59
2023/03/21 09:53:46;;;;;;;78.47;60.78;;;15.50;1.00;;;;;;5118974;28;20071;-59
2023/03/21 09:56:12;;;;;;;76.80;58.08;;;15.50;1.00;;;;;;5093672;27;20024;-59
2023/03/21 09:58:52;;;;;;;77.97;60.50;;;15.60;1.00;;;;;;5121133;27;20065;-58
2023/03/21 10:01:40;;;;;;;71.85;56.78;;;15.60;1.00;;;;;;5108325;27;20521;-59
2023/03/21 10:04:10;;;;;;;75.15;58.00;;;15.70;1.00;;;;;;5109245;27;20115;-59
2023/03/21 10:06:40;;;;;;;74.35;59.20;;;15.80;1.00;;;;;;5103145;28;20027;-59
2023/03/21 10:09:13;;;;;;;74.28;56.97;;;15.90;1.00;;;;;;5108690;27;20027;-58
2023/03/21 10:11:49;;;;;;;70.15;55.75;;;16.00;1.00;;;;;;5102328;28;20024;-58
2023/03/21 10:14:29;;;;;;;69.80;55.03;;;16.00;1.00;;;;;;5101419;28;20116;-58
2023/03/21 10:17:08;;;;;;;67.00;53.20;;;16.10;1.00;;;;;;5104352;27;20553;-58
2023/03/21 10:19:33;;;;;;;70.35;52.60;;;16.10;1.00;;;;;;5109368;27;20042;-58
2023/03/21 10:21:59;;;;;;;62.15;50.78;;;16.20;1.00;;;;;;5099450;27;20024;-59
2023/03/21 10:24:27;;;;;;;65.00;49.03;;;16.30;1.00;;;;;;5099591;28;20030;-60
2023/03/21 10:26:54;;;;;;;65.28;53.47;;;16.30;1.00;;;;;;5101672;28;20030;-59
2023/03/21 10:29:27;;;;;;;66.63;52.88;;;16.40;1.00;;;;;;5083071;28;20103;-60
2023/03/21 10:31:54;;;;;;;69.43;53.47;;;16.50;1.00;;;;;;5103112;28;20028;-60
2023/03/21 10:34:40;;;;;;;65.32;51.90;;;16.60;1.00;;;;;;5107923;28;20093;-59
2023/03/21 10:37:06;;;;;;;64.63;53.50;;;16.70;1.00;;;;;;5086376;28;20027;-59
2023/03/21 10:39:38;;;;;;;55.20;44.92;;;16.70;1.00;;;;;;5108251;28;20564;-59
2023/03/21 10:42:04;;;;;;;54.75;46.22;;;16.80;1.00;;;;;;5099102;28;20060;-57
2023/03/21 10:44:33;;;;;;;66.18;53.45;;;16.80;1.00;;;;;;5107159;28;20054;-58
2023/03/21 10:47:07;;;;;;;56.63;46.28;;;16.90;1.00;;;;;;5104192;28;20062;-58
2023/03/21 10:49:35;;;;;;;52.88;45.35;;;17.00;1.00;;;;;;5103311;28;20026;-58
2023/03/21 10:52:07;;;;;;;62.88;50.72;;;17.20;1.00;;;;;;5104405;28;20545;-57
2023/03/21 10:54:37;;;;;;;63.38;51.40;;;17.30;1.00;;;;;;5107767;28;20115;-58
2023/03/21 10:57:10;;;;;;;61.60;51.40;;;17.40;1.00;;;;;;5110144;28;20043;-58
2023/03/21 11:00:15;;;;;;;57.00;47.08;;;17.30;1.00;;;;;;5095604;28;20473;-59
2023/03/21 11:02:42;;;;;;;49.25;41.10;;;17.40;1.00;;;;;;5109021;28;20020;-58
2023/03/21 11:05:22;;;;;;;48.72;39.80;;;17.50;1.00;;;;;;5114113;28;20022;-59
2023/03/21 11:08:01;;;;;;;42.60;37.30;;;17.60;1.00;;;;;;5105094;28;20020;-59
2023/03/21 11:10:52;;;;;;;47.13;38.17;;;17.60;1.00;;;;;;5093947;28;20059;-58
2023/03/21 11:13:46;;;;;;;46.83;38.38;;;17.80;1.00;;;;;;5099051;28;20043;-58
2023/03/21 11:16:23;;;;;;;41.03;35.67;;;17.90;1.00;;;;;;5112884;28;20476;-58
2023/03/21 11:18:51;;;;;;;41.17;34.47;;;17.80;1.00;;;;;;5113775;28;20027;-59
2023/03/21 11:21:17;;;;;;;36.42;32.10;;;17.90;1.00;;;;;;5110421;28;20019;-59
2023/03/21 11:23:46;;;;;;;40.75;33.25;;;18.00;1.00;;;;;;5114114;28;20011;-60
2023/03/21 11:26:26;;;;;;;42.35;35.92;;;17.90;1.00;;;;;;5110975;28;20026;-59
2023/03/21 11:28:52;;;;;;;40.17;34.30;;;18.00;1.00;;;;;;5110338;28;20027;-59
2023/03/21 11:31:19;;;;;;;43.10;36.10;;;18.10;1.00;;;;;;5088493;28;20035;-59
2023/03/21 11:33:55;;;;;;;40.97;36.35;;;18.10;1.00;;;;;;5104274;28;20054;-59
2023/03/21 11:36:21;;;;;;;42.67;37.25;;;18.20;1.00;;;;;;5113380;28;20027;-58
2023/03/21 11:38:58;;;;;;;46.80;35.72;;;18.20;1.00;;;;;;5109860;28;20034;-57
2023/03/21 11:41:32;;;;;;;36.75;32.80;;;18.30;1.00;;;;;;5113373;28;20043;-59
2023/03/21 11:43:59;;;;;;;38.75;33.80;;;18.30;1.00;;;;;;5113329;28;20076;-59
2023/03/21 11:46:27;;;;;;;42.70;34.97;;;18.40;1.00;;;;;;5094027;28;20446;-58
2023/03/21 11:48:55;;;;;;;39.63;35.10;;;18.50;1.00;;;;;;5113000;28;20039;-59
2023/03/21 11:52:16;;;;;;;40.38;33.10;;;18.60;1.00;;;;;;5106679;28;20016;-59
2023/03/21 11:55:02;;;;;;;37.85;31.98;;;18.80;1.00;;;;;;5047216;28;20041;-59
2023/03/21 11:58:05;;;;;;;36.38;31.30;;;18.80;1.00;;;;;;5046447;28;20036;-58
2023/03/21 12:00:56;;;;;;;33.53;29.75;;;18.90;1.00;;;;;;5102840;28;20484;-59
2023/03/21 12:03:24;;;;;;;36.10;29.95;;;19.00;1.00;;;;;;5106942;28;20024;-59
2023/03/21 12:05:57;;;;;;;33.78;30.13;;;19.10;1.00;;;;;;5094416;28;20030;-59
2023/03/21 12:08:34;;;;;;;35.65;31.42;;;19.30;1.00;;;;;;5111325;28;20094;-59
2023/03/21 12:11:22;;;;;;;38.00;31.73;;;19.30;1.00;;;;;;5112299;28;20353;-59
2023/03/21 12:14:06;;;;;;;35.13;31.10;;;19.30;1.00;;;;;;5110620;28;20533;-59
2023/03/21 12:17:05;;;;;;;37.10;32.92;;;19.40;1.00;;;;;;5109687;28;20030;-58
2023/03/21 12:19:42;;;;;;;36.35;32.03;;;19.50;1.00;;;;;;5108800;28;20511;-59
2023/03/21 12:22:23;;;;;;;39.80;33.55;;;19.60;1.00;;;;;;5100498;28;20481;-58
2023/03/21 12:24:58;;;;;;;35.25;31.40;;;19.70;1.00;;;;;;5109927;28;20140;-59
2023/03/21 12:27:40;;;;;;;37.03;31.90;;;19.90;1.00;;;;;;5112640;28;20031;-58
2023/03/21 12:30:23;;;;;;;36.92;31.45;;;20.10;1.00;;;;;;5112182;28;20515;-58
2023/03/21 12:33:00;;;;;;;36.25;32.40;;;20.40;1.00;;;;;;5110531;28;21353;-59
2023/03/21 12:35:35;;;;;;;34.05;30.42;;;20.50;1.00;;;;;;5112493;28;20077;-59
2023/03/21 12:38:27;;;;;;;35.78;31.50;;;20.70;1.00;;;;;;5112787;28;20069;-59
2023/03/21 12:41:05;;;;;;;31.45;28.10;;;20.90;1.00;;;;;;5106846;28;20016;-59
2023/03/21 12:44:02;;;;;;;33.88;30.10;;;21.20;1.00;;;;;;5112405;28;20027;-59
2023/03/21 12:46:52;;;;;;;32.97;29.42;;;21.60;1.00;;;;;;5110227;28;20024;-59
2023/03/21 12:49:36;;;;;;;31.20;27.90;;;24.80;1.00;;;;;;5112176;28;20572;-59
2023/03/21 12:52:13;;;;;;;30.55;27.20;;;26.60;1.00;;;;;;5111541;28;20399;-59
2023/03/21 12:54:47;;;;;;;32.25;28.95;;;29.30;99.90;;;;;;5104077;28;20100;-59
2023/03/21 12:57:25;;;;;;;;;;;31.30;99.90;;;;;;5105619;28;20420;-60
2023/03/21 12:59:59;;;;;;;31.02;27.88;;;32.70;99.90;;;;;;5109539;28;19908;-60